createdAt,value
2023-03-21T00:02:28.725Z,2.97
2023-03-21T00:05:16.289Z,2.97
2023-03-21T00:08:03.407Z,2.73
2023-03-21T00:10:57.338Z,3.13
2023-03-21T00:13:44.336Z,3.00
2023-03-21T00:16:34.783Z,3.43
2023-03-21T00:19:26.260Z,3.60
2023-03-21T00:22:13.414Z,3.03
2023-03-21T00:25:00.397Z,3.00
2023-03-21T00:28:05.119Z,3.00
2023-03-21T00:31:00.681Z,5.47
2023-03-21T00:33:47.623Z,3.90
2023-03-21T00:36:34.968Z,4.00
2023-03-21T00:39:22.212Z,3.57
2023-03-21T00:42:12.165Z,3.23
2023-03-21T00:44:59.107Z,3.87
2023-03-21T00:47:46.201Z,3.50
2023-03-21T00:50:34.376Z,3.37
2023-03-21T00:53:21.746Z,2.77
2023-03-21T00:56:09.027Z,2.70
2023-03-21T00:58:56.009Z,2.50
2023-03-21T01:01:43.223Z,2.60
2023-03-21T01:04:30.249Z,2.57
2023-03-21T01:07:17.340Z,2.53
2023-03-21T01:10:04.677Z,2.40
2023-03-21T01:12:51.612Z,2.47
2023-03-21T01:15:44.899Z,2.60
2023-03-21T01:18:33.030Z,2.37
2023-03-21T01:21:20.335Z,2.07
2023-03-21T01:24:07.668Z,2.50
2023-03-21T01:26:56.166Z,2.60
2023-03-21T01:29:43.514Z,2.50
2023-03-21T01:32:30.478Z,2.40
2023-03-21T01:35:17.488Z,2.50
2023-03-21T01:38:04.836Z,2.83
2023-03-21T01:40:52.625Z,2.97
2023-03-21T01:43:46.202Z,2.90
2023-03-21T01:46:49.674Z,2.70
2023-03-21T01:50:04.016Z,2.57
2023-03-21T01:53:00.670Z,2.53
2023-03-21T01:55:50.980Z,2.70
2023-03-21T01:59:23.772Z,3.03
2023-03-21T02:02:37.513Z,2.50
2023-03-21T02:05:48.998Z,2.70
2023-03-21T02:08:39.932Z,2.47
2023-03-21T02:11:32.936Z,2.50
2023-03-21T02:14:28.964Z,2.47
2023-03-21T02:17:38.230Z,2.70
2023-03-21T02:20:44.848Z,2.57
2023-03-21T02:24:07.899Z,2.50
2023-03-21T02:27:04.384Z,2.80
2023-03-21T02:30:08.704Z,2.50
2023-03-21T02:33:10.974Z,2.37
2023-03-21T02:36:15.453Z,3.97
2023-03-21T02:39:23.333Z,2.50
2023-03-21T02:42:23.522Z,2.67
2023-03-21T02:45:35.967Z,2.57
2023-03-21T02:48:41.300Z,2.93
2023-03-21T02:51:34.293Z,2.90
2023-03-21T02:54:38.244Z,2.33
2023-03-21T02:57:41.654Z,2.60
2023-03-21T03:00:33.086Z,2.30
2023-03-21T03:03:40.489Z,2.57
2023-03-21T03:07:02.277Z,2.70
2023-03-21T03:10:36.856Z,4.27
2023-03-21T03:13:49.800Z,2.57
2023-03-21T03:17:01.757Z,3.00
2023-03-21T03:20:16.629Z,3.90
2023-03-21T03:23:17.704Z,2.83
2023-03-21T03:26:12.201Z,3.20
2023-03-21T03:29:05.037Z,2.83
2023-03-21T03:32:01.804Z,2.27
2023-03-21T03:34:56.944Z,2.90
2023-03-21T03:37:53.957Z,2.23
2023-03-21T03:40:46.547Z,2.27
2023-03-21T03:43:53.993Z,2.67
2023-03-21T03:46:49.353Z,2.30
2023-03-21T03:49:42.488Z,2.63
2023-03-21T03:52:32.423Z,2.60
2023-03-21T03:55:27.181Z,2.60
2023-03-21T03:58:23.768Z,2.17
2023-03-21T04:01:13.967Z,2.63
2023-03-21T04:04:12.637Z,2.50
2023-03-21T04:07:03.404Z,2.63
2023-03-21T04:09:50.400Z,2.53
2023-03-21T04:12:39.755Z,2.40
2023-03-21T04:15:49.850Z,2.50
2023-03-21T04:18:39.096Z,2.33
2023-03-21T04:21:27.469Z,2.20
2023-03-21T04:24:15.039Z,2.73
2023-03-21T04:27:05.800Z,2.60
2023-03-21T04:30:00.248Z,2.23
2023-03-21T04:33:01.185Z,2.30
2023-03-21T04:35:58.976Z,2.30
2023-03-21T04:38:49.135Z,2.13
2023-03-21T04:41:37.318Z,2.50
2023-03-21T04:44:24.963Z,2.23
2023-03-21T04:47:13.243Z,2.67
2023-03-21T04:50:00.800Z,2.37
2023-03-21T04:52:48.734Z,2.57
2023-03-21T04:55:37.028Z,2.33
2023-03-21T04:58:24.149Z,2.83
2023-03-21T05:01:14.461Z,3.13
2023-03-21T05:04:04.368Z,2.60
2023-03-21T05:06:53.388Z,2.47
2023-03-21T05:09:40.389Z,2.17
2023-03-21T05:12:27.366Z,2.10
2023-03-21T05:15:14.334Z,2.43
2023-03-21T05:18:11.349Z,2.73
2023-03-21T05:21:10.595Z,2.40
2023-03-21T05:24:03.517Z,2.40
2023-03-21T05:26:52.528Z,2.33
2023-03-21T05:29:42.827Z,2.70
2023-03-21T05:32:30.886Z,2.13
2023-03-21T05:35:20.486Z,2.43
2023-03-21T05:38:07.719Z,2.67
2023-03-21T05:41:06.196Z,2.50
2023-03-21T05:43:53.559Z,2.40
2023-03-21T05:46:43.350Z,3.43
2023-03-21T05:49:31.278Z,2.87
2023-03-21T05:52:21.365Z,2.73
2023-03-21T05:55:08.573Z,2.63
2023-03-21T05:57:55.548Z,2.50
2023-03-21T06:00:46.979Z,2.80
2023-03-21T06:03:42.874Z,2.43
2023-03-21T06:06:37.772Z,3.03
2023-03-21T06:09:26.028Z,2.67
2023-03-21T06:12:17.747Z,2.70
2023-03-21T06:15:26.756Z,2.80
2023-03-21T06:18:20.418Z,2.50
2023-03-21T06:21:18.637Z,2.63
2023-03-21T06:24:05.985Z,2.63
2023-03-21T06:26:53.009Z,2.73
2023-03-21T06:29:40.126Z,3.10
2023-03-21T06:32:27.165Z,2.90
2023-03-21T06:35:18.743Z,2.90
2023-03-21T06:38:06.009Z,3.20
2023-03-21T06:40:53.972Z,3.70
2023-03-21T06:43:43.645Z,4.10
2023-03-21T06:46:30.764Z,4.47
2023-03-21T06:49:18.085Z,3.80
2023-03-21T06:52:05.229Z,4.40
2023-03-21T06:54:52.326Z,3.97
2023-03-21T06:57:40.916Z,4.43
2023-03-21T07:00:28.865Z,5.07
2023-03-21T07:03:16.830Z,4.33
2023-03-21T07:06:11.706Z,4.50
2023-03-21T07:08:58.961Z,4.53
2023-03-21T07:11:46.183Z,4.80
2023-03-21T07:14:34.626Z,5.00
2023-03-21T07:17:21.628Z,4.83
2023-03-21T07:20:09.468Z,5.10
2023-03-21T07:22:56.968Z,4.63
2023-03-21T07:25:50.876Z,6.97
2023-03-21T07:28:37.877Z,4.90
2023-03-21T07:31:26.753Z,4.80
2023-03-21T07:34:15.874Z,4.57
2023-03-21T07:37:02.901Z,4.63
2023-03-21T07:39:51.470Z,4.30
2023-03-21T07:42:40.010Z,4.93
2023-03-21T07:45:27.716Z,4.20
2023-03-21T07:48:17.340Z,4.67
2023-03-21T07:51:06.341Z,4.70
2023-03-21T07:53:55.383Z,5.10
2023-03-21T07:56:42.347Z,5.23
2023-03-21T07:59:29.298Z,4.23
2023-03-21T08:02:18.026Z,4.33
2023-03-21T08:05:05.304Z,3.93
2023-03-21T08:07:52.333Z,4.37
2023-03-21T08:10:39.581Z,4.20
2023-03-21T08:13:26.605Z,3.77
2023-03-21T08:16:13.577Z,5.00
2023-03-21T08:19:00.606Z,5.07
2023-03-21T08:21:49.386Z,4.40
2023-03-21T08:24:36.351Z,5.80
2023-03-21T08:27:23.279Z,4.33
2023-03-21T08:30:13.190Z,4.23
2023-03-21T08:33:01.893Z,4.63
2023-03-21T08:35:49.332Z,4.00
2023-03-21T08:38:36.853Z,4.70
2023-03-21T08:41:25.873Z,5.50
2023-03-21T08:44:12.861Z,4.53
2023-03-21T08:46:59.827Z,6.40
2023-03-21T08:49:47.063Z,4.83
2023-03-21T08:52:34.128Z,7.23
2023-03-21T08:55:21.276Z,5.57
2023-03-21T08:58:08.245Z,5.77
2023-03-21T09:00:55.437Z,5.57
2023-03-21T09:03:43.099Z,5.00
2023-03-21T09:06:30.281Z,5.00
2023-03-21T09:09:17.951Z,5.00
2023-03-21T09:12:05.280Z,4.90
2023-03-21T09:14:53.231Z,5.70
2023-03-21T09:17:42.432Z,4.73
2023-03-21T09:20:32.958Z,4.80
2023-03-21T09:23:20.303Z,4.10
2023-03-21T09:26:10.682Z,4.47
2023-03-21T09:28:58.717Z,5.27
2023-03-21T09:31:46.810Z,5.20
2023-03-21T09:34:34.309Z,5.03
2023-03-21T09:37:21.328Z,4.93
2023-03-21T09:40:21.270Z,4.77
2023-03-21T09:43:47.625Z,4.03
2023-03-21T09:47:13.954Z,4.00
2023-03-21T09:50:20.579Z,5.07
2023-03-21T09:53:33.640Z,3.87
2023-03-21T09:56:21.276Z,3.93
2023-03-21T09:59:10.517Z,4.27
2023-03-21T10:02:00.152Z,4.27
2023-03-21T10:04:47.256Z,4.30
2023-03-21T10:07:40.368Z,4.20
2023-03-21T10:10:32.294Z,4.33
2023-03-21T10:13:27.757Z,3.53
2023-03-21T10:16:19.911Z,4.57
2023-03-21T10:19:16.188Z,4.60
2023-03-21T10:22:04.108Z,3.73
2023-03-21T10:24:51.449Z,4.20
2023-03-21T10:27:38.485Z,4.47
2023-03-21T10:30:36.920Z,4.37
2023-03-21T10:33:27.833Z,4.27
2023-03-21T10:36:20.403Z,4.80
2023-03-21T10:39:24.261Z,4.20
2023-03-21T10:42:20.137Z,4.47
2023-03-21T10:45:16.621Z,4.53
2023-03-21T10:48:08.118Z,4.37
2023-03-21T10:50:56.167Z,4.17
2023-03-21T10:53:51.273Z,4.13
2023-03-21T10:56:43.568Z,5.03
2023-03-21T10:59:39.638Z,4.30
2023-03-21T11:02:37.913Z,3.67
2023-03-21T11:05:40.759Z,4.33
2023-03-21T11:08:28.554Z,3.90
2023-03-21T11:11:29.554Z,3.93
2023-03-21T11:14:47.007Z,4.30
2023-03-21T11:17:35.920Z,4.20
2023-03-21T11:20:23.000Z,4.40
2023-03-21T11:23:12.877Z,4.53
2023-03-21T11:26:01.901Z,4.73
2023-03-21T11:28:48.911Z,4.50
2023-03-21T11:31:40.124Z,4.27
2023-03-21T11:34:48.967Z,4.27
2023-03-21T11:37:46.987Z,4.03
2023-03-21T11:40:36.634Z,4.30
2023-03-21T11:43:35.047Z,3.90
2023-03-21T11:46:27.738Z,3.70
2023-03-21T11:49:15.243Z,3.60
2023-03-21T11:52:25.703Z,3.10
2023-03-21T11:55:37.356Z,3.67
2023-03-21T11:59:03.638Z,3.20
2023-03-21T12:02:13.350Z,2.97
2023-03-21T12:05:05.789Z,2.67
2023-03-21T12:08:04.307Z,2.60
2023-03-21T12:10:55.800Z,2.90
2023-03-21T12:14:03.430Z,3.30
2023-03-21T12:17:00.858Z,3.20
2023-03-21T12:20:12.296Z,3.33
2023-03-21T12:23:37.050Z,4.03
2023-03-21T12:26:38.723Z,3.07
2023-03-21T12:29:35.555Z,3.00
2023-03-21T12:32:51.602Z,2.93
2023-03-21T12:36:04.197Z,2.83
2023-03-21T12:38:58.166Z,3.07
2023-03-21T12:42:05.595Z,2.70
2023-03-21T12:45:00.794Z,2.40
2023-03-21T12:47:56.251Z,3.00
2023-03-21T12:50:45.761Z,2.40
2023-03-21T12:53:53.019Z,2.90
2023-03-21T12:57:03.699Z,2.40
2023-03-21T13:00:28.154Z,3.00
2023-03-21T13:03:27.732Z,2.50
2023-03-21T13:06:21.131Z,2.83
2023-03-21T13:09:25.844Z,2.77
2023-03-21T13:12:47.600Z,2.73
2023-03-21T13:15:48.481Z,3.00
2023-03-21T13:18:41.993Z,2.03
2023-03-21T13:21:39.078Z,2.40
2023-03-21T13:24:33.039Z,2.60
2023-03-21T13:27:36.074Z,2.50
2023-03-21T13:30:28.023Z,2.30
2023-03-21T13:33:22.128Z,3.00
2023-03-21T13:36:09.436Z,2.87
2023-03-21T13:39:02.225Z,2.20
2023-03-21T13:41:50.006Z,2.40
2023-03-21T13:44:50.137Z,2.20
2023-03-21T13:47:40.629Z,2.30
2023-03-21T13:50:33.684Z,2.53
2023-03-21T13:53:23.105Z,2.90
2023-03-21T13:56:22.002Z,2.17
2023-03-21T13:59:11.629Z,2.57
2023-03-21T14:02:11.800Z,2.37
2023-03-21T14:05:07.057Z,2.47
2023-03-21T14:08:12.243Z,2.37
2023-03-21T14:11:10.506Z,2.20
2023-03-21T14:14:00.288Z,2.27
2023-03-21T14:16:47.283Z,2.87
2023-03-21T14:19:34.359Z,5.03
2023-03-21T14:22:22.320Z,3.70
2023-03-21T14:25:15.292Z,3.13
2023-03-21T14:28:06.568Z,3.47
2023-03-21T14:31:00.458Z,3.13
2023-03-21T14:33:53.997Z,2.70
2023-03-21T14:36:45.740Z,2.80
2023-03-21T14:39:35.815Z,2.43
2023-03-21T14:42:25.609Z,2.57
2023-03-21T14:45:20.593Z,2.37
2023-03-21T14:48:12.615Z,2.43
2023-03-21T14:51:09.849Z,2.47
2023-03-21T14:53:57.382Z,2.60
2023-03-21T14:56:52.553Z,2.83
2023-03-21T14:59:41.154Z,2.40
2023-03-21T15:02:30.983Z,2.60
2023-03-21T15:05:37.495Z,2.70
2023-03-21T15:08:27.252Z,2.50
2023-03-21T15:11:15.282Z,2.40
2023-03-21T15:14:07.758Z,2.10
2023-03-21T15:16:56.113Z,2.10
2023-03-21T15:19:43.752Z,2.23
2023-03-21T15:22:37.348Z,2.13
2023-03-21T15:25:32.864Z,2.50
2023-03-21T15:28:19.869Z,2.40
2023-03-21T15:31:16.138Z,2.20
2023-03-21T15:34:04.803Z,2.30
2023-03-21T15:36:57.628Z,2.37
2023-03-21T15:39:45.695Z,2.37
2023-03-21T15:42:38.006Z,2.40
2023-03-21T15:45:29.169Z,2.30
2023-03-21T15:48:17.117Z,2.33
2023-03-21T15:51:07.224Z,2.33
2023-03-21T15:53:54.322Z,2.73
2023-03-21T15:56:45.850Z,2.10
2023-03-21T15:59:41.232Z,2.30
2023-03-21T16:02:30.779Z,2.63
2023-03-21T16:05:28.784Z,2.20
2023-03-21T16:08:27.582Z,2.57
2023-03-21T16:11:19.231Z,2.33
2023-03-21T16:14:06.529Z,2.50
2023-03-21T16:16:54.142Z,2.40
2023-03-21T16:19:43.272Z,2.23
2023-03-21T16:22:34.775Z,2.47
2023-03-21T16:25:22.602Z,2.13
2023-03-21T16:28:15.933Z,3.80
2023-03-21T16:31:03.089Z,2.53
2023-03-21T16:33:51.210Z,2.33
2023-03-21T16:36:40.439Z,2.87
2023-03-21T16:39:27.628Z,2.40
2023-03-21T16:42:14.576Z,2.30
2023-03-21T16:45:01.650Z,2.00
2023-03-21T16:47:49.449Z,2.23
2023-03-21T16:50:41.473Z,2.10
2023-03-21T16:53:28.597Z,1.80
2023-03-21T16:56:21.729Z,1.70
2023-03-21T16:59:12.723Z,2.23
2023-03-21T17:01:59.661Z,2.27
2023-03-21T17:04:47.597Z,2.30
2023-03-21T17:07:34.594Z,2.10
2023-03-21T17:10:27.477Z,2.03
2023-03-21T17:13:14.439Z,1.93
2023-03-21T17:16:01.405Z,1.80
2023-03-21T17:18:49.635Z,2.13
2023-03-21T17:21:36.620Z,2.10
2023-03-21T17:24:23.831Z,2.00
2023-03-21T17:27:15.286Z,2.80
2023-03-21T17:30:02.493Z,1.70
2023-03-21T17:32:50.871Z,1.73
2023-03-21T17:35:38.005Z,1.83
2023-03-21T17:38:25.126Z,1.40
2023-03-21T17:41:14.868Z,1.60
2023-03-21T17:44:02.686Z,1.60
2023-03-21T17:46:51.973Z,1.73
2023-03-21T17:49:39.282Z,2.27
2023-03-21T17:52:26.545Z,1.97
2023-03-21T17:55:19.303Z,1.60
2023-03-21T17:58:06.510Z,1.60
2023-03-21T18:00:53.566Z,1.50
2023-03-21T18:03:40.963Z,1.60
2023-03-21T18:06:28.057Z,2.77
2023-03-21T18:09:19.906Z,1.57
2023-03-21T18:12:08.495Z,1.47
2023-03-21T18:14:55.951Z,2.43
2023-03-21T18:17:43.011Z,1.80
2023-03-21T18:20:50.337Z,2.57
2023-03-21T18:23:38.260Z,1.60
2023-03-21T18:26:25.924Z,1.60
2023-03-21T18:32:24.353Z,1.80
2023-03-21T18:35:14.456Z,1.60
2023-03-21T18:38:02.953Z,1.50
2023-03-21T18:40:50.093Z,1.43
2023-03-21T18:46:47.252Z,1.33
2023-03-21T18:50:10.637Z,1.33
2023-03-21T18:52:42.302Z,1.30
2023-03-21T18:55:44.547Z,1.43
2023-03-21T18:58:32.791Z,1.70
2023-03-21T19:01:19.872Z,1.50
2023-03-21T19:04:29.733Z,2.33
2023-03-21T19:07:14.927Z,2.83
2023-03-21T19:10:17.100Z,1.40
2023-03-21T19:13:06.980Z,1.47
2023-03-21T19:15:54.165Z,1.43
2023-03-21T19:18:57.510Z,1.43
2023-03-21T19:21:47.045Z,1.87
2023-03-21T19:24:34.197Z,1.20
2023-03-21T19:27:21.148Z,1.40
2023-03-21T19:30:15.686Z,1.07
2023-03-21T19:33:03.010Z,1.20
2023-03-21T19:36:08.919Z,1.10
2023-03-21T19:38:57.841Z,1.23
2023-03-21T19:41:45.306Z,0.90
2023-03-21T19:44:33.246Z,1.20
2023-03-21T19:47:20.782Z,2.27
2023-03-21T19:53:15.688Z,1.10
2023-03-21T19:56:04.937Z,1.30
2023-03-21T19:58:57.946Z,1.60
2023-03-21T20:01:45.064Z,1.10
2023-03-21T20:04:32.974Z,1.20
2023-03-21T20:07:19.948Z,1.40
2023-03-21T20:10:08.671Z,1.50
2023-03-21T20:12:56.178Z,1.60
2023-03-21T20:15:48.041Z,1.47
2023-03-21T20:18:37.904Z,2.17
2023-03-21T20:21:31.116Z,1.20
2023-03-21T20:24:20.272Z,1.37
2023-03-21T20:27:07.201Z,1.20
2023-03-21T20:30:10.412Z,1.37
2023-03-21T20:32:57.688Z,2.00
2023-03-21T20:36:29.434Z,1.20
2023-03-21T20:38:52.626Z,1.20
2023-03-21T20:41:39.650Z,1.23
2023-03-21T20:44:57.334Z,1.47
2023-03-21T20:47:34.902Z,1.23
2023-03-21T20:50:23.036Z,1.40
2023-03-21T20:53:10.152Z,1.53
2023-03-21T20:56:02.146Z,2.00
2023-03-21T20:59:11.869Z,1.43
2023-03-21T21:01:57.470Z,1.40
2023-03-21T21:05:11.775Z,1.60
2023-03-21T21:07:51.599Z,1.10
2023-03-21T21:11:04.036Z,1.67
2023-03-21T21:13:46.776Z,1.57
2023-03-21T21:16:33.712Z,1.40
2023-03-21T21:19:21.615Z,1.93
2023-03-21T21:22:08.926Z,1.20
2023-03-21T21:24:56.300Z,1.80
2023-03-21T21:27:43.415Z,1.83
2023-03-21T21:30:31.599Z,2.10
2023-03-21T21:33:21.080Z,1.97
2023-03-21T21:36:09.943Z,1.90
2023-03-21T21:38:56.885Z,2.20
2023-03-21T21:41:44.162Z,2.87
2023-03-21T21:44:31.572Z,2.50
2023-03-21T21:47:18.519Z,2.10
2023-03-21T21:50:07.355Z,2.63
2023-03-21T21:52:54.484Z,2.10
2023-03-21T21:55:41.533Z,2.80
2023-03-21T21:58:29.837Z,2.77
2023-03-21T22:01:17.422Z,2.37
2023-03-21T22:04:08.369Z,2.20
2023-03-21T22:06:55.963Z,2.67
2023-03-21T22:09:43.279Z,3.03
2023-03-21T22:12:30.309Z,3.20
2023-03-21T22:15:18.220Z,3.07
2023-03-21T22:18:05.580Z,3.30
2023-03-21T22:20:52.553Z,3.47
2023-03-21T22:23:41.296Z,2.90
2023-03-21T22:26:28.228Z,2.67
2023-03-21T22:29:15.543Z,2.57
2023-03-21T22:32:02.611Z,2.50
2023-03-21T22:34:49.612Z,2.53
2023-03-21T22:37:41.537Z,2.20
2023-03-21T22:40:28.520Z,2.30
2023-03-21T22:43:15.441Z,2.40
2023-03-21T22:46:03.849Z,3.90
2023-03-21T22:48:51.074Z,3.87
2023-03-21T22:51:37.994Z,3.90
2023-03-21T22:54:25.124Z,2.90
2023-03-21T22:57:13.620Z,3.20
2023-03-21T23:00:01.350Z,3.37
2023-03-21T23:02:48.294Z,3.27
2023-03-21T23:05:44.983Z,3.67
2023-03-21T23:08:31.980Z,3.93
2023-03-21T23:11:19.149Z,3.60
2023-03-21T23:14:08.365Z,3.20
2023-03-21T23:17:00.050Z,2.80
2023-03-21T23:19:46.993Z,2.97
2023-03-21T23:22:34.549Z,3.10
2023-03-21T23:25:21.907Z,3.30
2023-03-21T23:28:08.862Z,3.50
2023-03-21T23:30:55.945Z,3.63
2023-03-21T23:33:44.289Z,3.03
2023-03-21T23:36:31.255Z,3.37
2023-03-21T23:39:18.587Z,2.83
2023-03-21T23:42:06.565Z,3.30
2023-03-21T23:44:53.494Z,3.00
2023-03-21T23:47:40.508Z,2.70
2023-03-21T23:50:27.486Z,3.50
2023-03-21T23:53:14.483Z,2.97
2023-03-21T23:56:01.698Z,4.07
2023-03-21T23:58:50.056Z,3.53
